sensor_id;sensor_type;location;lat;lon;timestamp;P1;durP1;ratioP1;P2;durP2;ratioP2
25023;SDS011;13033;50.936;5.334;2023-04-06T00:01:35;32.72;;;18.88;;
25023;SDS011;13033;50.936;5.334;2023-04-06T00:04:01;29.92;;;18.13;;
25023;SDS011;13033;50.936;5.334;2023-04-06T00:06:26;37.53;;;19.63;;
25023;SDS011;13033;50.936;5.334;2023-04-06T00:08:52;31.52;;;18.67;;
25023;SDS011;13033;50.936;5.334;2023-04-06T00:11:18;31.33;;;18.27;;
25023;SDS011;13033;50.936;5.334;2023-04-06T00:13:44;34.47;;;19.27;;
25023;SDS011;13033;50.936;5.334;2023-04-06T00:16:10;29.48;;;18.40;;
25023;SDS011;13033;50.936;5.334;2023-04-06T00:18:35;35.50;;;17.98;;
25023;SDS011;13033;50.936;5.334;2023-04-06T00:21:01;29.98;;;18.70;;
25023;SDS011;13033;50.936;5.334;2023-04-06T00:23:27;30.90;;;18.70;;
25023;SDS011;13033;50.936;5.334;2023-04-06T00:25:53;34.10;;;19.42;;
25023;SDS011;13033;50.936;5.334;2023-04-06T00:28:19;35.65;;;19.50;;
25023;SDS011;13033;50.936;5.334;2023-04-06T00:30:50;31.63;;;18.65;;
25023;SDS011;13033;50.936;5.334;2023-04-06T00:33:17;29.65;;;18.02;;
25023;SDS011;13033;50.936;5.334;2023-04-06T00:35:44;30.33;;;17.40;;
25023;SDS011;13033;50.936;5.334;2023-04-06T00:38:09;30.13;;;17.45;;
25023;SDS011;13033;50.936;5.334;2023-04-06T00:40:35;32.58;;;18.55;;
25023;SDS011;13033;50.936;5.334;2023-04-06T00:43:01;32.25;;;17.90;;
25023;SDS011;13033;50.936;5.334;2023-04-06T00:45:26;30.63;;;18.58;;
25023;SDS011;13033;50.936;5.334;2023-04-06T00:47:53;31.83;;;19.30;;
25023;SDS011;13033;50.936;5.334;2023-04-06T00:50:18;35.95;;;19.13;;
25023;SDS011;13033;50.936;5.334;2023-04-06T00:52:44;29.63;;;18.15;;
25023;SDS011;13033;50.936;5.334;2023-04-06T00:55:10;32.95;;;18.60;;
25023;SDS011;13033;50.936;5.334;2023-04-06T00:57:36;32.63;;;18.30;;
25023;SDS011;13033;50.936;5.334;2023-04-06T01:00:02;32.70;;;18.75;;
25023;SDS011;13033;50.936;5.334;2023-04-06T01:02:28;30.30;;;18.52;;
25023;SDS011;13033;50.936;5.334;2023-04-06T01:04:54;30.45;;;18.33;;
25023;SDS011;13033;50.936;5.334;2023-04-06T01:07:20;31.40;;;17.73;;
25023;SDS011;13033;50.936;5.334;2023-04-06T01:09:46;30.88;;;17.70;;
25023;SDS011;13033;50.936;5.334;2023-04-06T01:12:11;30.33;;;17.63;;
25023;SDS011;13033;50.936;5.334;2023-04-06T01:14:37;31.95;;;18.35;;
25023;SDS011;13033;50.936;5.334;2023-04-06T01:17:02;30.45;;;18.52;;
25023;SDS011;13033;50.936;5.334;2023-04-06T01:19:28;30.08;;;18.08;;
25023;SDS011;13033;50.936;5.334;2023-04-06T01:21:54;31.73;;;17.70;;
25023;SDS011;13033;50.936;5.334;2023-04-06T01:24:20;28.88;;;17.17;;
25023;SDS011;13033;50.936;5.334;2023-04-06T01:26:46;31.58;;;17.70;;
25023;SDS011;13033;50.936;5.334;2023-04-06T01:29:12;28.42;;;17.10;;
25023;SDS011;13033;50.936;5.334;2023-04-06T01:31:38;33.70;;;18.35;;
25023;SDS011;13033;50.936;5.334;2023-04-06T01:34:04;30.48;;;17.92;;
25023;SDS011;13033;50.936;5.334;2023-04-06T01:36:30;32.28;;;18.63;;
25023;SDS011;13033;50.936;5.334;2023-04-06T01:38:56;28.33;;;17.63;;
25023;SDS011;13033;50.936;5.334;2023-04-06T01:41:22;30.45;;;18.63;;
25023;SDS011;13033;50.936;5.334;2023-04-06T01:43:47;32.13;;;19.15;;
25023;SDS011;13033;50.936;5.334;2023-04-06T01:46:14;37.47;;;18.65;;
25023;SDS011;13033;50.936;5.334;2023-04-06T01:48:40;29.20;;;18.83;;
25023;SDS011;13033;50.936;5.334;2023-04-06T01:51:06;32.63;;;19.67;;
25023;SDS011;13033;50.936;5.334;2023-04-06T01:53:32;31.40;;;19.17;;
25023;SDS011;13033;50.936;5.334;2023-04-06T01:55:57;35.40;;;20.45;;
25023;SDS011;13033;50.936;5.334;2023-04-06T01:58:23;29.88;;;18.55;;
25023;SDS011;13033;50.936;5.334;2023-04-06T02:00:49;33.03;;;19.67;;
25023;SDS011;13033;50.936;5.334;2023-04-06T02:03:14;31.13;;;18.27;;
25023;SDS011;13033;50.936;5.334;2023-04-06T02:05:40;37.13;;;18.27;;
25023;SDS011;13033;50.936;5.334;2023-04-06T02:08:06;33.42;;;19.38;;
25023;SDS011;13033;50.936;5.334;2023-04-06T02:10:32;30.05;;;18.40;;
25023;SDS011;13033;50.936;5.334;2023-04-06T02:12:58;29.40;;;18.10;;
25023;SDS011;13033;50.936;5.334;2023-04-06T02:15:24;29.33;;;18.17;;
25023;SDS011;13033;50.936;5.334;2023-04-06T02:17:50;32.20;;;18.73;;
25023;SDS011;13033;50.936;5.334;2023-04-06T02:20:16;29.35;;;17.65;;
25023;SDS011;13033;50.936;5.334;2023-04-06T02:22:42;30.08;;;17.13;;
25023;SDS011;13033;50.936;5.334;2023-04-06T02:25:08;33.55;;;18.15;;
25023;SDS011;13033;50.936;5.334;2023-04-06T02:27:34;29.63;;;17.83;;
25023;SDS011;13033;50.936;5.334;2023-04-06T02:30:01;31.33;;;18.10;;
25023;SDS011;13033;50.936;5.334;2023-04-06T02:32:27;29.65;;;18.05;;
25023;SDS011;13033;50.936;5.334;2023-04-06T02:34:52;31.55;;;18.58;;
25023;SDS011;13033;50.936;5.334;2023-04-06T02:37:18;27.65;;;17.98;;
25023;SDS011;13033;50.936;5.334;2023-04-06T02:39:44;31.70;;;18.35;;
25023;SDS011;13033;50.936;5.334;2023-04-06T02:42:10;32.95;;;18.02;;
25023;SDS011;13033;50.936;5.334;2023-04-06T02:44:36;29.92;;;17.95;;
25023;SDS011;13033;50.936;5.334;2023-04-06T02:47:01;30.95;;;16.98;;
25023;SDS011;13033;50.936;5.334;2023-04-06T02:49:27;26.48;;;16.27;;
25023;SDS011;13033;50.936;5.334;2023-04-06T02:51:53;31.25;;;17.08;;
25023;SDS011;13033;50.936;5.334;2023-04-06T02:54:19;29.88;;;17.02;;
25023;SDS011;13033;50.936;5.334;2023-04-06T02:56:44;30.35;;;17.15;;
25023;SDS011;13033;50.936;5.334;2023-04-06T02:59:10;27.00;;;16.58;;
25023;SDS011;13033;50.936;5.334;2023-04-06T03:01:36;33.25;;;17.05;;
25023;SDS011;13033;50.936;5.334;2023-04-06T03:04:02;31.85;;;16.98;;
25023;SDS011;13033;50.936;5.334;2023-04-06T03:06:27;31.45;;;17.20;;
25023;SDS011;13033;50.936;5.334;2023-04-06T03:08:53;31.95;;;16.27;;
25023;SDS011;13033;50.936;5.334;2023-04-06T03:11:19;30.35;;;16.63;;
25023;SDS011;13033;50.936;5.334;2023-04-06T03:13:45;30.42;;;17.05;;
25023;SDS011;13033;50.936;5.334;2023-04-06T03:16:11;25.65;;;16.45;;
25023;SDS011;13033;50.936;5.334;2023-04-06T03:18:37;29.77;;;17.08;;
25023;SDS011;13033;50.936;5.334;2023-04-06T03:21:02;30.48;;;17.08;;
25023;SDS011;13033;50.936;5.334;2023-04-06T03:23:28;28.50;;;16.67;;
25023;SDS011;13033;50.936;5.334;2023-04-06T03:25:54;33.65;;;16.42;;
25023;SDS011;13033;50.936;5.334;2023-04-06T03:28:20;27.17;;;16.63;;
25023;SDS011;13033;50.936;5.334;2023-04-06T03:30:46;27.38;;;16.10;;
25023;SDS011;13033;50.936;5.334;2023-04-06T03:33:11;26.60;;;16.33;;
25023;SDS011;13033;50.936;5.334;2023-04-06T03:35:37;30.80;;;16.52;;
25023;SDS011;13033;50.936;5.334;2023-04-06T03:38:03;30.08;;;15.80;;
25023;SDS011;13033;50.936;5.334;2023-04-06T03:40:30;26.50;;;16.20;;
25023;SDS011;13033;50.936;5.334;2023-04-06T03:42:56;27.83;;;15.32;;
25023;SDS011;13033;50.936;5.334;2023-04-06T03:45:21;29.45;;;15.68;;
25023;SDS011;13033;50.936;5.334;2023-04-06T03:47:47;28.95;;;15.70;;
25023;SDS011;13033;50.936;5.334;2023-04-06T03:50:13;25.80;;;15.05;;
25023;SDS011;13033;50.936;5.334;2023-04-06T03:52:38;25.23;;;15.57;;
25023;SDS011;13033;50.936;5.334;2023-04-06T03:55:04;30.80;;;15.98;;
25023;SDS011;13033;50.936;5.334;2023-04-06T03:57:32;27.55;;;16.50;;
25023;SDS011;13033;50.936;5.334;2023-04-06T03:59:58;30.85;;;15.88;;
25023;SDS011;13033;50.936;5.334;2023-04-06T04:02:23;28.63;;;15.32;;
25023;SDS011;13033;50.936;5.334;2023-04-06T04:04:49;26.55;;;15.65;;
25023;SDS011;13033;50.936;5.334;2023-04-06T04:07:15;26.08;;;15.10;;
25023;SDS011;13033;50.936;5.334;2023-04-06T04:09:40;23.60;;;14.75;;
25023;SDS011;13033;50.936;5.334;2023-04-06T04:12:06;27.90;;;15.27;;
25023;SDS011;13033;50.936;5.334;2023-04-06T04:14:32;26.60;;;14.65;;
25023;SDS011;13033;50.936;5.334;2023-04-06T04:16:57;27.25;;;15.52;;
25023;SDS011;13033;50.936;5.334;2023-04-06T04:19:23;25.38;;;15.32;;
25023;SDS011;13033;50.936;5.334;2023-04-06T04:21:49;25.52;;;14.25;;
25023;SDS011;13033;50.936;5.334;2023-04-06T04:24:14;23.52;;;13.18;;
25023;SDS011;13033;50.936;5.334;2023-04-06T04:26:40;29.80;;;15.10;;
25023;SDS011;13033;50.936;5.334;2023-04-06T04:29:06;27.42;;;14.93;;
25023;SDS011;13033;50.936;5.334;2023-04-06T04:31:32;24.98;;;14.98;;
25023;SDS011;13033;50.936;5.334;2023-04-06T04:33:59;27.10;;;14.10;;
25023;SDS011;13033;50.936;5.334;2023-04-06T04:36:25;24.77;;;14.43;;
25023;SDS011;13033;50.936;5.334;2023-04-06T04:38:51;28.08;;;13.30;;
25023;SDS011;13033;50.936;5.334;2023-04-06T04:41:17;24.40;;;15.25;;
25023;SDS011;13033;50.936;5.334;2023-04-06T04:43:43;25.48;;;13.05;;
25023;SDS011;13033;50.936;5.334;2023-04-06T04:46:15;28.55;;;14.63;;
25023;SDS011;13033;50.936;5.334;2023-04-06T04:48:41;23.13;;;14.05;;
25023;SDS011;13033;50.936;5.334;2023-04-06T04:51:06;30.08;;;15.00;;
25023;SDS011;13033;50.936;5.334;2023-04-06T04:53:32;24.30;;;14.40;;
25023;SDS011;13033;50.936;5.334;2023-04-06T04:55:57;29.70;;;16.83;;
25023;SDS011;13033;50.936;5.334;2023-04-06T04:58:23;23.10;;;14.05;;
25023;SDS011;13033;50.936;5.334;2023-04-06T05:00:49;25.70;;;14.45;;
25023;SDS011;13033;50.936;5.334;2023-04-06T05:03:19;25.00;;;13.80;;
25023;SDS011;13033;50.936;5.334;2023-04-06T05:05:48;23.40;;;14.05;;
25023;SDS011;13033;50.936;5.334;2023-04-06T05:08:13;26.17;;;14.65;;
25023;SDS011;13033;50.936;5.334;2023-04-06T05:10:39;25.70;;;13.98;;
25023;SDS011;13033;50.936;5.334;2023-04-06T05:13:05;24.88;;;14.95;;
25023;SDS011;13033;50.936;5.334;2023-04-06T05:15:31;26.48;;;13.88;;
25023;SDS011;13033;50.936;5.334;2023-04-06T05:17:59;32.03;;;14.13;;
25023;SDS011;13033;50.936;5.334;2023-04-06T05:20:26;27.00;;;14.60;;
25023;SDS011;13033;50.936;5.334;2023-04-06T05:22:52;26.80;;;14.10;;
25023;SDS011;13033;50.936;5.334;2023-04-06T05:25:18;26.55;;;14.02;;
25023;SDS011;13033;50.936;5.334;2023-04-06T05:27:44;23.92;;;14.02;;
25023;SDS011;13033;50.936;5.334;2023-04-06T05:30:10;23.98;;;14.30;;
25023;SDS011;13033;50.936;5.334;2023-04-06T05:32:36;26.67;;;14.48;;
25023;SDS011;13033;50.936;5.334;2023-04-06T05:35:01;23.42;;;13.63;;
25023;SDS011;13033;50.936;5.334;2023-04-06T05:37:27;27.67;;;14.40;;
25023;SDS011;13033;50.936;5.334;2023-04-06T05:39:53;23.70;;;14.00;;
25023;SDS011;13033;50.936;5.334;2023-04-06T05:42:18;24.25;;;13.88;;
25023;SDS011;13033;50.936;5.334;2023-04-06T05:44:44;24.88;;;13.68;;
25023;SDS011;13033;50.936;5.334;2023-04-06T05:47:10;25.15;;;14.50;;
25023;SDS011;13033;50.936;5.334;2023-04-06T05:49:36;24.33;;;13.60;;
25023;SDS011;13033;50.936;5.334;2023-04-06T05:52:01;29.38;;;13.32;;
25023;SDS011;13033;50.936;5.334;2023-04-06T05:54:27;27.77;;;13.60;;
25023;SDS011;13033;50.936;5.334;2023-04-06T05:56:53;25.75;;;14.73;;
25023;SDS011;13033;50.936;5.334;2023-04-06T05:59:18;22.02;;;14.27;;
25023;SDS011;13033;50.936;5.334;2023-04-06T06:01:45;24.27;;;13.35;;
25023;SDS011;13033;50.936;5.334;2023-04-06T06:04:11;23.95;;;13.77;;
25023;SDS011;13033;50.936;5.334;2023-04-06T06:06:36;27.75;;;14.80;;
25023;SDS011;13033;50.936;5.334;2023-04-06T06:09:02;30.63;;;13.82;;
25023;SDS011;13033;50.936;5.334;2023-04-06T06:11:28;29.70;;;14.15;;
25023;SDS011;13033;50.936;5.334;2023-04-06T06:13:55;25.42;;;13.98;;
25023;SDS011;13033;50.936;5.334;2023-04-06T06:16:21;23.83;;;14.07;;
25023;SDS011;13033;50.936;5.334;2023-04-06T06:18:47;23.88;;;14.23;;
25023;SDS011;13033;50.936;5.334;2023-04-06T06:21:13;23.77;;;13.27;;
25023;SDS011;13033;50.936;5.334;2023-04-06T06:23:38;29.38;;;14.43;;
25023;SDS011;13033;50.936;5.334;2023-04-06T06:26:04;26.92;;;13.15;;
25023;SDS011;13033;50.936;5.334;2023-04-06T06:28:31;26.73;;;14.20;;
25023;SDS011;13033;50.936;5.334;2023-04-06T06:30:57;26.05;;;13.52;;
25023;SDS011;13033;50.936;5.334;2023-04-06T06:33:23;24.52;;;14.35;;
25023;SDS011;13033;50.936;5.334;2023-04-06T06:35:49;27.65;;;14.65;;
25023;SDS011;13033;50.936;5.334;2023-04-06T06:38:16;22.92;;;13.23;;
25023;SDS011;13033;50.936;5.334;2023-04-06T06:40:42;30.58;;;14.05;;
25023;SDS011;13033;50.936;5.334;2023-04-06T06:43:08;26.50;;;13.98;;
25023;SDS011;13033;50.936;5.334;2023-04-06T06:45:33;25.00;;;14.07;;
25023;SDS011;13033;50.936;5.334;2023-04-06T06:47:59;26.35;;;14.57;;
25023;SDS011;13033;50.936;5.334;2023-04-06T06:50:25;27.17;;;14.23;;
25023;SDS011;13033;50.936;5.334;2023-04-06T06:52:51;22.67;;;13.30;;
25023;SDS011;13033;50.936;5.334;2023-04-06T06:55:16;24.30;;;13.15;;
25023;SDS011;13033;50.936;5.334;2023-04-06T06:57:44;27.95;;;14.05;;
25023;SDS011;13033;50.936;5.334;2023-04-06T07:00:11;23.50;;;14.07;;
25023;SDS011;13033;50.936;5.334;2023-04-06T07:02:38;23.17;;;13.43;;
25023;SDS011;13033;50.936;5.334;2023-04-06T07:05:04;20.10;;;12.45;;
25023;SDS011;13033;50.936;5.334;2023-04-06T07:07:33;25.73;;;13.88;;
25023;SDS011;13033;50.936;5.334;2023-04-06T07:09:59;24.58;;;13.15;;
25023;SDS011;13033;50.936;5.334;2023-04-06T07:12:25;25.27;;;13.13;;
25023;SDS011;13033;50.936;5.334;2023-04-06T07:14:51;24.33;;;13.45;;
25023;SDS011;13033;50.936;5.334;2023-04-06T07:17:17;22.83;;;12.82;;
25023;SDS011;13033;50.936;5.334;2023-04-06T07:19:43;25.75;;;13.45;;
25023;SDS011;13033;50.936;5.334;2023-04-06T07:22:10;20.60;;;12.48;;
25023;SDS011;13033;50.936;5.334;2023-04-06T07:24:36;21.13;;;12.70;;
25023;SDS011;13033;50.936;5.334;2023-04-06T07:27:02;21.10;;;12.27;;
25023;SDS011;13033;50.936;5.334;2023-04-06T07:29:27;23.75;;;13.25;;
25023;SDS011;13033;50.936;5.334;2023-04-06T07:31:54;24.55;;;12.55;;
25023;SDS011;13033;50.936;5.334;2023-04-06T07:34:20;22.65;;;12.60;;
25023;SDS011;13033;50.936;5.334;2023-04-06T07:36:46;21.27;;;11.80;;
25023;SDS011;13033;50.936;5.334;2023-04-06T07:39:11;23.90;;;13.05;;
25023;SDS011;13033;50.936;5.334;2023-04-06T07:41:37;26.27;;;12.98;;
25023;SDS011;13033;50.936;5.334;2023-04-06T07:44:03;24.35;;;12.40;;
25023;SDS011;13033;50.936;5.334;2023-04-06T07:46:29;28.10;;;12.55;;
25023;SDS011;13033;50.936;5.334;2023-04-06T07:48:56;20.92;;;11.68;;
25023;SDS011;13033;50.936;5.334;2023-04-06T07:51:23;23.13;;;12.00;;
25023;SDS011;13033;50.936;5.334;2023-04-06T07:53:50;22.05;;;12.98;;
25023;SDS011;13033;50.936;5.334;2023-04-06T07:56:16;20.98;;;12.25;;
25023;SDS011;13033;50.936;5.334;2023-04-06T07:58:42;27.40;;;13.70;;
25023;SDS011;13033;50.936;5.334;2023-04-06T08:01:08;22.02;;;12.18;;
25023;SDS011;13033;50.936;5.334;2023-04-06T08:03:36;17.70;;;12.02;;
25023;SDS011;13033;50.936;5.334;2023-04-06T08:06:02;25.08;;;13.20;;
25023;SDS011;13033;50.936;5.334;2023-04-06T08:08:28;28.08;;;12.23;;
25023;SDS011;13033;50.936;5.334;2023-04-06T08:10:54;25.00;;;12.68;;
25023;SDS011;13033;50.936;5.334;2023-04-06T08:13:20;21.17;;;12.40;;
25023;SDS011;13033;50.936;5.334;2023-04-06T08:15:46;26.00;;;13.23;;
25023;SDS011;13033;50.936;5.334;2023-04-06T08:18:12;23.10;;;12.63;;
25023;SDS011;13033;50.936;5.334;2023-04-06T08:20:38;21.27;;;12.25;;
25023;SDS011;13033;50.936;5.334;2023-04-06T08:23:04;20.63;;;12.07;;
25023;SDS011;13033;50.936;5.334;2023-04-06T08:25:31;23.40;;;12.73;;
25023;SDS011;13033;50.936;5.334;2023-04-06T08:27:59;23.55;;;12.38;;
25023;SDS011;13033;50.936;5.334;2023-04-06T08:30:24;22.65;;;12.02;;
25023;SDS011;13033;50.936;5.334;2023-04-06T08:32:50;23.10;;;12.18;;
25023;SDS011;13033;50.936;5.334;2023-04-06T08:35:16;22.98;;;11.80;;
25023;SDS011;13033;50.936;5.334;2023-04-06T08:37:42;21.52;;;11.57;;
25023;SDS011;13033;50.936;5.334;2023-04-06T08:40:07;22.90;;;12.05;;
25023;SDS011;13033;50.936;5.334;2023-04-06T08:42:33;21.73;;;12.02;;
25023;SDS011;13033;50.936;5.334;2023-04-06T08:45:07;23.55;;;12.48;;
25023;SDS011;13033;50.936;5.334;2023-04-06T08:47:34;25.65;;;12.32;;
25023;SDS011;13033;50.936;5.334;2023-04-06T08:50:02;21.67;;;11.43;;
25023;SDS011;13033;50.936;5.334;2023-04-06T08:52:29;22.85;;;11.82;;
25023;SDS011;13033;50.936;5.334;2023-04-06T08:54:58;21.08;;;11.43;;
25023;SDS011;13033;50.936;5.334;2023-04-06T08:57:24;20.95;;;11.48;;
25023;SDS011;13033;50.936;5.334;2023-04-06T08:59:51;21.88;;;10.52;;
25023;SDS011;13033;50.936;5.334;2023-04-06T09:02:17;19.17;;;11.68;;
25023;SDS011;13033;50.936;5.334;2023-04-06T09:04:52;18.48;;;10.50;;
25023;SDS011;13033;50.936;5.334;2023-04-06T09:07:18;21.30;;;10.32;;
25023;SDS011;13033;50.936;5.334;2023-04-06T09:09:45;17.88;;;10.15;;
25023;SDS011;13033;50.936;5.334;2023-04-06T09:12:26;18.88;;;10.57;;
25023;SDS011;13033;50.936;5.334;2023-04-06T09:14:53;16.58;;;9.82;;
25023;SDS011;13033;50.936;5.334;2023-04-06T09:17:22;17.75;;;9.75;;
25023;SDS011;13033;50.936;5.334;2023-04-06T09:19:49;16.98;;;10.05;;
25023;SDS011;13033;50.936;5.334;2023-04-06T09:22:15;18.42;;;9.77;;
25023;SDS011;13033;50.936;5.334;2023-04-06T09:24:45;15.93;;;9.50;;
25023;SDS011;13033;50.936;5.334;2023-04-06T09:27:12;14.20;;;9.02;;
25023;SDS011;13033;50.936;5.334;2023-04-06T09:29:39;20.33;;;9.65;;
25023;SDS011;13033;50.936;5.334;2023-04-06T09:32:09;15.57;;;9.02;;
25023;SDS011;13033;50.936;5.334;2023-04-06T09:34:38;15.82;;;9.45;;
25023;SDS011;13033;50.936;5.334;2023-04-06T09:39:43;15.07;;;9.10;;
25023;SDS011;13033;50.936;5.334;2023-04-06T09:42:09;15.10;;;9.35;;
25023;SDS011;13033;50.936;5.334;2023-04-06T09:44:36;14.15;;;8.43;;
25023;SDS011;13033;50.936;5.334;2023-04-06T09:47:02;15.13;;;8.95;;
25023;SDS011;13033;50.936;5.334;2023-04-06T09:49:32;12.73;;;7.97;;
25023;SDS011;13033;50.936;5.334;2023-04-06T09:52:00;15.25;;;9.43;;
25023;SDS011;13033;50.936;5.334;2023-04-06T09:54:28;15.60;;;8.52;;
25023;SDS011;13033;50.936;5.334;2023-04-06T09:57:01;16.10;;;10.05;;
25023;SDS011;13033;50.936;5.334;2023-04-06T10:08:08;17.83;;;9.68;;
25023;SDS011;13033;50.936;5.334;2023-04-06T10:10:35;17.25;;;9.32;;
25023;SDS011;13033;50.936;5.334;2023-04-06T10:13:02;15.35;;;9.75;;
25023;SDS011;13033;50.936;5.334;2023-04-06T10:15:30;16.30;;;9.25;;
25023;SDS011;13033;50.936;5.334;2023-04-06T10:17:57;17.38;;;10.02;;
25023;SDS011;13033;50.936;5.334;2023-04-06T10:25:53;20.70;;;10.73;;
25023;SDS011;13033;50.936;5.334;2023-04-06T10:28:20;16.10;;;10.43;;
25023;SDS011;13033;50.936;5.334;2023-04-06T10:30:46;17.67;;;10.02;;
25023;SDS011;13033;50.936;5.334;2023-04-06T10:33:16;21.08;;;10.70;;
25023;SDS011;13033;50.936;5.334;2023-04-06T10:35:43;15.43;;;9.65;;
25023;SDS011;13033;50.936;5.334;2023-04-06T10:38:09;19.70;;;11.05;;
25023;SDS011;13033;50.936;5.334;2023-04-06T10:40:37;17.60;;;9.68;;
25023;SDS011;13033;50.936;5.334;2023-04-06T10:43:08;16.05;;;9.82;;
25023;SDS011;13033;50.936;5.334;2023-04-06T10:45:34;18.00;;;9.65;;
25023;SDS011;13033;50.936;5.334;2023-04-06T10:48:00;17.83;;;9.73;;
25023;SDS011;13033;50.936;5.334;2023-04-06T10:50:37;15.90;;;9.60;;
25023;SDS011;13033;50.936;5.334;2023-04-06T10:53:05;21.75;;;9.90;;
25023;SDS011;13033;50.936;5.334;2023-04-06T10:55:31;15.18;;;9.60;;
25023;SDS011;13033;50.936;5.334;2023-04-06T10:57:57;13.32;;;9.52;;
25023;SDS011;13033;50.936;5.334;2023-04-06T11:00:22;17.48;;;9.43;;
25023;SDS011;13033;50.936;5.334;2023-04-06T11:02:49;16.63;;;9.05;;
25023;SDS011;13033;50.936;5.334;2023-04-06T11:05:14;16.65;;;8.70;;
25023;SDS011;13033;50.936;5.334;2023-04-06T11:07:40;12.00;;;7.40;;
25023;SDS011;13033;50.936;5.334;2023-04-06T11:10:07;12.48;;;7.82;;
25023;SDS011;13033;50.936;5.334;2023-04-06T11:12:33;12.07;;;7.97;;
25023;SDS011;13033;50.936;5.334;2023-04-06T11:15:02;15.13;;;7.30;;
25023;SDS011;13033;50.936;5.334;2023-04-06T11:17:32;14.63;;;8.32;;
25023;SDS011;13033;50.936;5.334;2023-04-06T11:20:00;13.68;;;8.05;;
25023;SDS011;13033;50.936;5.334;2023-04-06T11:22:28;13.48;;;8.07;;
25023;SDS011;13033;50.936;5.334;2023-04-06T11:25:06;14.10;;;8.65;;
25023;SDS011;13033;50.936;5.334;2023-04-06T11:27:33;13.75;;;8.57;;
25023;SDS011;13033;50.936;5.334;2023-04-06T11:30:00;13.88;;;8.05;;
25023;SDS011;13033;50.936;5.334;2023-04-06T11:32:26;13.88;;;8.35;;
25023;SDS011;13033;50.936;5.334;2023-04-06T11:34:52;15.38;;;8.18;;
25023;SDS011;13033;50.936;5.334;2023-04-06T11:37:17;13.00;;;8.43;;
25023;SDS011;13033;50.936;5.334;2023-04-06T11:39:47;15.40;;;7.60;;
25023;SDS011;13033;50.936;5.334;2023-04-06T11:42:23;13.73;;;8.63;;
25023;SDS011;13033;50.936;5.334;2023-04-06T11:44:51;14.30;;;8.20;;
25023;SDS011;13033;50.936;5.334;2023-04-06T11:47:27;15.75;;;8.32;;
25023;SDS011;13033;50.936;5.334;2023-04-06T11:50:05;20.48;;;8.93;;
25023;SDS011;13033;50.936;5.334;2023-04-06T11:52:35;13.45;;;8.80;;
25023;SDS011;13033;50.936;5.334;2023-04-06T11:55:10;14.32;;;8.80;;
25023;SDS011;13033;50.936;5.334;2023-04-06T11:57:43;14.98;;;8.70;;
25023;SDS011;13033;50.936;5.334;2023-04-06T12:00:10;11.80;;;6.78;;
25023;SDS011;13033;50.936;5.334;2023-04-06T12:02:37;13.43;;;7.32;;
25023;SDS011;13033;50.936;5.334;2023-04-06T12:05:04;11.75;;;7.25;;
25023;SDS011;13033;50.936;5.334;2023-04-06T12:07:31;11.27;;;7.28;;
25023;SDS011;13033;50.936;5.334;2023-04-06T12:09:58;11.73;;;7.97;;
25023;SDS011;13033;50.936;5.334;2023-04-06T12:12:27;10.48;;;7.63;;
25023;SDS011;13033;50.936;5.334;2023-04-06T12:14:53;11.57;;;7.50;;
25023;SDS011;13033;50.936;5.334;2023-04-06T12:17:19;10.77;;;7.50;;
25023;SDS011;13033;50.936;5.334;2023-04-06T12:19:45;14.07;;;7.57;;
25023;SDS011;13033;50.936;5.334;2023-04-06T12:22:11;13.35;;;7.97;;
25023;SDS011;13033;50.936;5.334;2023-04-06T12:24:37;11.07;;;7.88;;
25023;SDS011;13033;50.936;5.334;2023-04-06T12:27:02;11.13;;;7.80;;
25023;SDS011;13033;50.936;5.334;2023-04-06T12:29:28;11.68;;;7.90;;
25023;SDS011;13033;50.936;5.334;2023-04-06T12:31:54;10.40;;;7.38;;
25023;SDS011;13033;50.936;5.334;2023-04-06T12:34:20;11.82;;;7.47;;
25023;SDS011;13033;50.936;5.334;2023-04-06T12:36:45;13.60;;;8.50;;
25023;SDS011;13033;50.936;5.334;2023-04-06T12:39:11;12.27;;;8.32;;
25023;SDS011;13033;50.936;5.334;2023-04-06T12:41:37;11.52;;;8.02;;
25023;SDS011;13033;50.936;5.334;2023-04-06T12:44:05;12.48;;;8.48;;
25023;SDS011;13033;50.936;5.334;2023-04-06T12:46:31;14.63;;;8.10;;
25023;SDS011;13033;50.936;5.334;2023-04-06T12:48:57;13.02;;;7.40;;
25023;SDS011;13033;50.936;5.334;2023-04-06T12:51:24;16.75;;;8.32;;
25023;SDS011;13033;50.936;5.334;2023-04-06T12:53:52;13.48;;;8.05;;
25023;SDS011;13033;50.936;5.334;2023-04-06T12:56:18;12.02;;;8.27;;
25023;SDS011;13033;50.936;5.334;2023-04-06T12:58:45;11.35;;;7.07;;
25023;SDS011;13033;50.936;5.334;2023-04-06T13:01:11;13.55;;;8.05;;
25023;SDS011;13033;50.936;5.334;2023-04-06T13:03:38;13.27;;;8.65;;
25023;SDS011;13033;50.936;5.334;2023-04-06T13:06:08;12.13;;;8.00;;
25023;SDS011;13033;50.936;5.334;2023-04-06T13:08:34;14.05;;;8.77;;
25023;SDS011;13033;50.936;5.334;2023-04-06T13:11:02;14.40;;;8.98;;
25023;SDS011;13033;50.936;5.334;2023-04-06T13:13:28;11.95;;;8.02;;
25023;SDS011;13033;50.936;5.334;2023-04-06T13:15:58;14.10;;;8.30;;
25023;SDS011;13033;50.936;5.334;2023-04-06T13:18:28;12.43;;;8.13;;
25023;SDS011;13033;50.936;5.334;2023-04-06T13:20:55;13.35;;;9.15;;
25023;SDS011;13033;50.936;5.334;2023-04-06T13:23:22;11.38;;;8.05;;
25023;SDS011;13033;50.936;5.334;2023-04-06T13:26:04;12.75;;;7.90;;
25023;SDS011;13033;50.936;5.334;2023-04-06T13:28:30;12.27;;;8.32;;
25023;SDS011;13033;50.936;5.334;2023-04-06T13:30:58;13.07;;;8.38;;
25023;SDS011;13033;50.936;5.334;2023-04-06T13:33:24;14.85;;;8.30;;
25023;SDS011;13033;50.936;5.334;2023-04-06T13:35:51;12.70;;;8.32;;
25023;SDS011;13033;50.936;5.334;2023-04-06T13:38:16;12.00;;;8.60;;
25023;SDS011;13033;50.936;5.334;2023-04-06T13:40:42;12.88;;;8.10;;
25023;SDS011;13033;50.936;5.334;2023-04-06T13:43:08;13.70;;;8.63;;
25023;SDS011;13033;50.936;5.334;2023-04-06T13:45:34;11.88;;;8.43;;
25023;SDS011;13033;50.936;5.334;2023-04-06T13:48:00;12.25;;;8.20;;
25023;SDS011;13033;50.936;5.334;2023-04-06T13:50:26;13.90;;;8.82;;
25023;SDS011;13033;50.936;5.334;2023-04-06T13:52:52;13.55;;;9.50;;
25023;SDS011;13033;50.936;5.334;2023-04-06T13:55:18;12.57;;;8.30;;
25023;SDS011;13033;50.936;5.334;2023-04-06T13:57:43;12.27;;;7.95;;
25023;SDS011;13033;50.936;5.334;2023-04-06T14:00:09;12.80;;;8.45;;
25023;SDS011;13033;50.936;5.334;2023-04-06T14:02:36;12.13;;;8.02;;
25023;SDS011;13033;50.936;5.334;2023-04-06T14:05:02;10.32;;;7.60;;
25023;SDS011;13033;50.936;5.334;2023-04-06T14:07:28;11.15;;;7.88;;
25023;SDS011;13033;50.936;5.334;2023-04-06T14:09:54;11.68;;;6.82;;
25023;SDS011;13033;50.936;5.334;2023-04-06T14:12:20;11.02;;;8.18;;
25023;SDS011;13033;50.936;5.334;2023-04-06T14:14:45;12.48;;;8.65;;
25023;SDS011;13033;50.936;5.334;2023-04-06T14:17:11;11.57;;;7.05;;
25023;SDS011;13033;50.936;5.334;2023-04-06T14:19:37;12.38;;;7.75;;
25023;SDS011;13033;50.936;5.334;2023-04-06T14:22:03;10.07;;;7.82;;
25023;SDS011;13033;50.936;5.334;2023-04-06T14:24:29;11.75;;;7.88;;
25023;SDS011;13033;50.936;5.334;2023-04-06T14:26:55;11.05;;;8.02;;
25023;SDS011;13033;50.936;5.334;2023-04-06T14:29:21;11.63;;;8.48;;
25023;SDS011;13033;50.936;5.334;2023-04-06T14:31:47;14.77;;;9.70;;
25023;SDS011;13033;50.936;5.334;2023-04-06T14:34:14;13.32;;;8.50;;
25023;SDS011;13033;50.936;5.334;2023-04-06T14:36:40;15.05;;;9.80;;
25023;SDS011;13033;50.936;5.334;2023-04-06T14:39:06;12.00;;;8.90;;